sensor_id;sensor_type;location;lat;lon;timestamp;P1;durP1;ratioP1;P2;durP2;ratioP2
6638;SDS011;3355;52.882;8.430;2024-01-07T00:00:38;8.43;;;5.87;;
6638;SDS011;3355;52.882;8.430;2024-01-07T00:03:06;6.67;;;4.30;;
6638;SDS011;3355;52.882;8.430;2024-01-07T00:05:45;5.37;;;4.40;;
6638;SDS011;3355;52.882;8.430;2024-01-07T00:08:13;6.30;;;5.70;;
6638;SDS011;3355;52.882;8.430;2024-01-07T00:10:43;7.40;;;5.40;;
6638;SDS011;3355;52.882;8.430;2024-01-07T00:13:11;7.27;;;4.83;;
6638;SDS011;3355;52.882;8.430;2024-01-07T00:15:39;5.57;;;4.53;;
6638;SDS011;3355;52.882;8.430;2024-01-07T00:18:08;6.80;;;4.60;;
6638;SDS011;3355;52.882;8.430;2024-01-07T00:20:35;6.40;;;5.13;;
6638;SDS011;3355;52.882;8.430;2024-01-07T00:23:04;7.53;;;5.17;;
6638;SDS011;3355;52.882;8.430;2024-01-07T00:25:34;6.33;;;4.60;;
6638;SDS011;3355;52.882;8.430;2024-01-07T00:28:06;6.40;;;4.23;;
6638;SDS011;3355;52.882;8.430;2024-01-07T00:30:32;6.30;;;4.77;;
6638;SDS011;3355;52.882;8.430;2024-01-07T00:33:02;7.50;;;4.83;;
6638;SDS011;3355;52.882;8.430;2024-01-07T00:35:33;6.47;;;4.33;;
6638;SDS011;3355;52.882;8.430;2024-01-07T00:38:01;6.83;;;4.70;;
6638;SDS011;3355;52.882;8.430;2024-01-07T00:40:28;5.83;;;4.30;;
6638;SDS011;3355;52.882;8.430;2024-01-07T00:42:57;7.17;;;4.80;;
6638;SDS011;3355;52.882;8.430;2024-01-07T00:45:26;4.83;;;3.97;;
6638;SDS011;3355;52.882;8.430;2024-01-07T00:48:04;5.53;;;4.50;;
6638;SDS011;3355;52.882;8.430;2024-01-07T00:50:35;4.90;;;4.23;;
6638;SDS011;3355;52.882;8.430;2024-01-07T00:53:04;5.20;;;4.67;;
6638;SDS011;3355;52.882;8.430;2024-01-07T00:55:31;5.73;;;4.83;;
6638;SDS011;3355;52.882;8.430;2024-01-07T00:58:01;7.70;;;4.93;;
6638;SDS011;3355;52.882;8.430;2024-01-07T01:00:30;6.47;;;4.90;;
6638;SDS011;3355;52.882;8.430;2024-01-07T01:02:58;6.77;;;4.77;;
6638;SDS011;3355;52.882;8.430;2024-01-07T01:05:29;6.10;;;4.40;;
6638;SDS011;3355;52.882;8.430;2024-01-07T01:08:02;5.10;;;4.17;;
6638;SDS011;3355;52.882;8.430;2024-01-07T01:10:32;6.60;;;4.30;;
6638;SDS011;3355;52.882;8.430;2024-01-07T01:13:00;7.20;;;4.60;;
6638;SDS011;3355;52.882;8.430;2024-01-07T01:15:34;5.10;;;4.07;;
6638;SDS011;3355;52.882;8.430;2024-01-07T01:18:01;5.07;;;3.87;;
6638;SDS011;3355;52.882;8.430;2024-01-07T01:20:29;5.67;;;4.10;;
6638;SDS011;3355;52.882;8.430;2024-01-07T01:22:56;5.67;;;4.60;;
6638;SDS011;3355;52.882;8.430;2024-01-07T01:25:23;4.93;;;4.43;;
6638;SDS011;3355;52.882;8.430;2024-01-07T01:27:56;7.07;;;4.37;;
6638;SDS011;3355;52.882;8.430;2024-01-07T01:30:24;7.30;;;4.10;;
6638;SDS011;3355;52.882;8.430;2024-01-07T01:32:56;4.50;;;4.07;;
6638;SDS011;3355;52.882;8.430;2024-01-07T01:35:24;5.73;;;4.10;;
6638;SDS011;3355;52.882;8.430;2024-01-07T01:37:57;5.73;;;3.90;;
6638;SDS011;3355;52.882;8.430;2024-01-07T01:40:28;4.07;;;3.23;;
6638;SDS011;3355;52.882;8.430;2024-01-07T01:43:10;4.80;;;3.03;;
6638;SDS011;3355;52.882;8.430;2024-01-07T01:45:57;5.10;;;3.70;;
6638;SDS011;3355;52.882;8.430;2024-01-07T01:51:44;6.17;;;4.33;;
6638;SDS011;3355;52.882;8.430;2024-01-07T01:54:25;4.00;;;3.33;;
6638;SDS011;3355;52.882;8.430;2024-01-07T01:56:56;4.60;;;2.90;;
6638;SDS011;3355;52.882;8.430;2024-01-07T01:59:45;5.50;;;3.47;;
6638;SDS011;3355;52.882;8.430;2024-01-07T02:02:27;6.40;;;3.80;;
6638;SDS011;3355;52.882;8.430;2024-01-07T02:04:58;6.07;;;4.10;;
6638;SDS011;3355;52.882;8.430;2024-01-07T02:07:32;3.83;;;3.20;;
6638;SDS011;3355;52.882;8.430;2024-01-07T02:10:07;6.90;;;4.20;;
6638;SDS011;3355;52.882;8.430;2024-01-07T02:12:37;3.93;;;3.53;;
6638;SDS011;3355;52.882;8.430;2024-01-07T02:21:34;4.50;;;2.80;;
6638;SDS011;3355;52.882;8.430;2024-01-07T03:19:35;5.00;;;3.50;;
6638;SDS011;3355;52.882;8.430;2024-01-07T03:22:06;4.17;;;3.50;;
6638;SDS011;3355;52.882;8.430;2024-01-07T03:24:45;4.07;;;3.67;;
6638;SDS011;3355;52.882;8.430;2024-01-07T03:44:16;6.17;;;4.47;;
6638;SDS011;3355;52.882;8.430;2024-01-07T03:46:44;4.93;;;4.23;;
6638;SDS011;3355;52.882;8.430;2024-01-07T03:49:14;3.40;;;2.60;;
6638;SDS011;3355;52.882;8.430;2024-01-07T03:51:43;7.77;;;3.60;;
6638;SDS011;3355;52.882;8.430;2024-01-07T03:54:19;4.53;;;2.93;;
6638;SDS011;3355;52.882;8.430;2024-01-07T03:56:47;3.70;;;3.23;;
6638;SDS011;3355;52.882;8.430;2024-01-07T04:02:24;6.07;;;2.77;;
6638;SDS011;3355;52.882;8.430;2024-01-07T04:05:06;3.97;;;2.83;;
6638;SDS011;3355;52.882;8.430;2024-01-07T04:07:41;5.27;;;3.03;;
6638;SDS011;3355;52.882;8.430;2024-01-07T04:10:40;4.57;;;2.70;;
6638;SDS011;3355;52.882;8.430;2024-01-07T04:13:08;7.33;;;2.97;;
6638;SDS011;3355;52.882;8.430;2024-01-07T04:15:37;5.40;;;2.90;;
6638;SDS011;3355;52.882;8.430;2024-01-07T04:18:08;4.27;;;2.80;;
6638;SDS011;3355;52.882;8.430;2024-01-07T04:20:35;3.50;;;2.50;;
6638;SDS011;3355;52.882;8.430;2024-01-07T04:23:03;3.73;;;2.80;;
6638;SDS011;3355;52.882;8.430;2024-01-07T04:25:43;3.57;;;2.50;;
6638;SDS011;3355;52.882;8.430;2024-01-07T04:28:11;2.73;;;2.07;;
6638;SDS011;3355;52.882;8.430;2024-01-07T04:30:43;2.43;;;1.97;;
6638;SDS011;3355;52.882;8.430;2024-01-07T04:33:14;3.23;;;2.50;;
6638;SDS011;3355;52.882;8.430;2024-01-07T04:35:52;4.40;;;2.37;;
6638;SDS011;3355;52.882;8.430;2024-01-07T04:38:23;3.37;;;2.40;;
6638;SDS011;3355;52.882;8.430;2024-01-07T04:40:51;3.67;;;2.53;;
6638;SDS011;3355;52.882;8.430;2024-01-07T04:43:25;5.00;;;2.47;;
6638;SDS011;3355;52.882;8.430;2024-01-07T04:45:59;2.70;;;2.30;;
6638;SDS011;3355;52.882;8.430;2024-01-07T04:48:26;4.23;;;2.60;;
6638;SDS011;3355;52.882;8.430;2024-01-07T04:51:00;3.83;;;2.50;;
6638;SDS011;3355;52.882;8.430;2024-01-07T04:53:30;4.10;;;2.50;;
6638;SDS011;3355;52.882;8.430;2024-01-07T04:55:59;3.13;;;2.10;;
6638;SDS011;3355;52.882;8.430;2024-01-07T04:58:31;4.73;;;2.43;;
6638;SDS011;3355;52.882;8.430;2024-01-07T05:01:07;5.30;;;2.57;;
6638;SDS011;3355;52.882;8.430;2024-01-07T05:03:37;3.60;;;3.17;;
6638;SDS011;3355;52.882;8.430;2024-01-07T05:06:07;2.40;;;2.10;;
6638;SDS011;3355;52.882;8.430;2024-01-07T05:08:35;3.90;;;2.60;;
6638;SDS011;3355;52.882;8.430;2024-01-07T05:11:15;3.40;;;2.40;;
6638;SDS011;3355;52.882;8.430;2024-01-07T05:13:44;3.00;;;2.37;;
6638;SDS011;3355;52.882;8.430;2024-01-07T05:16:19;3.47;;;2.50;;
6638;SDS011;3355;52.882;8.430;2024-01-07T05:18:46;2.97;;;2.07;;
6638;SDS011;3355;52.882;8.430;2024-01-07T05:21:14;3.53;;;2.40;;
6638;SDS011;3355;52.882;8.430;2024-01-07T05:24:03;2.67;;;2.17;;
6638;SDS011;3355;52.882;8.430;2024-01-07T05:26:48;3.00;;;2.23;;
6638;SDS011;3355;52.882;8.430;2024-01-07T05:52:51;7.07;;;2.00;;
6638;SDS011;3355;52.882;8.430;2024-01-07T05:59:09;3.07;;;1.87;;
6638;SDS011;3355;52.882;8.430;2024-01-07T06:02:15;2.20;;;1.63;;
6638;SDS011;3355;52.882;8.430;2024-01-07T06:31:11;3.10;;;1.63;;
6638;SDS011;3355;52.882;8.430;2024-01-07T06:34:00;3.73;;;2.67;;
6638;SDS011;3355;52.882;8.430;2024-01-07T06:36:29;2.20;;;1.20;;
6638;SDS011;3355;52.882;8.430;2024-01-07T06:39:00;1.60;;;1.17;;
6638;SDS011;3355;52.882;8.430;2024-01-07T06:41:30;2.50;;;1.20;;
6638;SDS011;3355;52.882;8.430;2024-01-07T06:47:26;2.77;;;1.60;;
6638;SDS011;3355;52.882;8.430;2024-01-07T06:50:13;1.80;;;1.40;;
6638;SDS011;3355;52.882;8.430;2024-01-07T06:52:42;3.83;;;1.90;;
6638;SDS011;3355;52.882;8.430;2024-01-07T06:55:16;1.87;;;1.30;;
6638;SDS011;3355;52.882;8.430;2024-01-07T06:57:58;2.57;;;1.50;;
6638;SDS011;3355;52.882;8.430;2024-01-07T07:13:20;3.10;;;1.60;;
6638;SDS011;3355;52.882;8.430;2024-01-07T07:15:51;1.60;;;1.20;;
6638;SDS011;3355;52.882;8.430;2024-01-07T07:18:28;1.70;;;1.17;;
6638;SDS011;3355;52.882;8.430;2024-01-07T07:21:05;2.50;;;1.20;;
6638;SDS011;3355;52.882;8.430;2024-01-07T07:23:42;2.30;;;1.77;;
6638;SDS011;3355;52.882;8.430;2024-01-07T07:26:54;1.93;;;1.43;;
6638;SDS011;3355;52.882;8.430;2024-01-07T07:29:27;2.90;;;1.50;;
6638;SDS011;3355;52.882;8.430;2024-01-07T07:32:32;2.73;;;1.80;;
6638;SDS011;3355;52.882;8.430;2024-01-07T07:35:02;4.07;;;2.67;;
6638;SDS011;3355;52.882;8.430;2024-01-07T07:37:35;1.80;;;1.30;;
6638;SDS011;3355;52.882;8.430;2024-01-07T07:40:04;2.40;;;1.40;;
6638;SDS011;3355;52.882;8.430;2024-01-07T07:42:40;1.73;;;1.03;;
6638;SDS011;3355;52.882;8.430;2024-01-07T07:45:12;2.90;;;1.60;;
6638;SDS011;3355;52.882;8.430;2024-01-07T07:47:58;1.83;;;1.30;;
6638;SDS011;3355;52.882;8.430;2024-01-07T07:50:46;1.80;;;1.27;;
6638;SDS011;3355;52.882;8.430;2024-01-07T07:53:29;2.33;;;1.20;;
6638;SDS011;3355;52.882;8.430;2024-01-07T07:56:17;1.87;;;1.00;;
6638;SDS011;3355;52.882;8.430;2024-01-07T07:58:54;3.90;;;1.70;;
6638;SDS011;3355;52.882;8.430;2024-01-07T08:01:25;2.93;;;1.50;;
6638;SDS011;3355;52.882;8.430;2024-01-07T08:04:07;1.70;;;1.23;;
6638;SDS011;3355;52.882;8.430;2024-01-07T08:06:50;1.80;;;1.40;;
6638;SDS011;3355;52.882;8.430;2024-01-07T08:09:21;2.10;;;1.40;;
6638;SDS011;3355;52.882;8.430;2024-01-07T08:12:04;2.23;;;1.50;;
6638;SDS011;3355;52.882;8.430;2024-01-07T08:14:48;5.07;;;2.03;;
6638;SDS011;3355;52.882;8.430;2024-01-07T08:17:17;3.27;;;2.30;;
6638;SDS011;3355;52.882;8.430;2024-01-07T08:19:56;5.63;;;3.03;;
6638;SDS011;3355;52.882;8.430;2024-01-07T08:22:59;4.33;;;2.20;;
6638;SDS011;3355;52.882;8.430;2024-01-07T08:25:44;2.60;;;1.57;;
6638;SDS011;3355;52.882;8.430;2024-01-07T08:41:14;2.70;;;1.70;;
6638;SDS011;3355;52.882;8.430;2024-01-07T08:43:42;2.90;;;1.83;;
6638;SDS011;3355;52.882;8.430;2024-01-07T08:46:25;3.47;;;2.20;;
6638;SDS011;3355;52.882;8.430;2024-01-07T08:49:16;2.23;;;1.77;;
6638;SDS011;3355;52.882;8.430;2024-01-07T08:51:48;4.00;;;1.73;;
6638;SDS011;3355;52.882;8.430;2024-01-07T08:54:16;2.63;;;1.80;;
6638;SDS011;3355;52.882;8.430;2024-01-07T08:56:43;1.70;;;1.10;;
6638;SDS011;3355;52.882;8.430;2024-01-07T08:59:10;1.97;;;1.50;;
6638;SDS011;3355;52.882;8.430;2024-01-07T09:01:36;4.50;;;1.90;;
6638;SDS011;3355;52.882;8.430;2024-01-07T09:04:03;7.10;;;2.17;;
6638;SDS011;3355;52.882;8.430;2024-01-07T09:06:30;2.37;;;1.47;;
6638;SDS011;3355;52.882;8.430;2024-01-07T09:08:57;2.87;;;1.73;;
6638;SDS011;3355;52.882;8.430;2024-01-07T09:11:25;2.47;;;1.43;;
6638;SDS011;3355;52.882;8.430;2024-01-07T09:13:51;2.90;;;1.80;;
6638;SDS011;3355;52.882;8.430;2024-01-07T09:16:18;3.00;;;1.67;;
6638;SDS011;3355;52.882;8.430;2024-01-07T09:18:44;3.00;;;1.97;;
6638;SDS011;3355;52.882;8.430;2024-01-07T09:21:11;3.37;;;1.70;;
6638;SDS011;3355;52.882;8.430;2024-01-07T09:23:39;3.60;;;2.13;;
6638;SDS011;3355;52.882;8.430;2024-01-07T09:26:07;3.90;;;2.03;;
6638;SDS011;3355;52.882;8.430;2024-01-07T09:28:35;5.30;;;1.73;;
6638;SDS011;3355;52.882;8.430;2024-01-07T09:31:01;2.33;;;1.60;;
6638;SDS011;3355;52.882;8.430;2024-01-07T09:33:28;2.27;;;1.57;;
6638;SDS011;3355;52.882;8.430;2024-01-07T09:35:55;4.00;;;1.90;;
6638;SDS011;3355;52.882;8.430;2024-01-07T09:38:24;3.23;;;1.57;;
6638;SDS011;3355;52.882;8.430;2024-01-07T09:40:51;3.17;;;2.13;;
6638;SDS011;3355;52.882;8.430;2024-01-07T09:43:18;2.37;;;1.57;;
6638;SDS011;3355;52.882;8.430;2024-01-07T09:45:46;3.10;;;2.20;;
6638;SDS011;3355;52.882;8.430;2024-01-07T09:48:13;3.30;;;1.93;;
6638;SDS011;3355;52.882;8.430;2024-01-07T09:50:40;2.97;;;1.63;;
6638;SDS011;3355;52.882;8.430;2024-01-07T09:53:06;3.10;;;1.60;;
6638;SDS011;3355;52.882;8.430;2024-01-07T09:55:37;3.50;;;2.07;;
6638;SDS011;3355;52.882;8.430;2024-01-07T09:58:06;4.93;;;2.50;;
6638;SDS011;3355;52.882;8.430;2024-01-07T10:00:38;4.10;;;2.07;;
6638;SDS011;3355;52.882;8.430;2024-01-07T10:03:07;3.17;;;2.37;;
6638;SDS011;3355;52.882;8.430;2024-01-07T10:05:35;3.90;;;2.73;;
6638;SDS011;3355;52.882;8.430;2024-01-07T10:08:02;2.60;;;1.80;;
6638;SDS011;3355;52.882;8.430;2024-01-07T10:10:29;4.40;;;2.40;;
6638;SDS011;3355;52.882;8.430;2024-01-07T10:12:55;3.20;;;1.80;;
6638;SDS011;3355;52.882;8.430;2024-01-07T10:15:23;2.97;;;1.57;;
6638;SDS011;3355;52.882;8.430;2024-01-07T10:17:50;4.80;;;2.30;;
6638;SDS011;3355;52.882;8.430;2024-01-07T10:20:22;4.30;;;1.93;;
6638;SDS011;3355;52.882;8.430;2024-01-07T10:22:49;3.40;;;2.20;;
6638;SDS011;3355;52.882;8.430;2024-01-07T10:25:16;2.20;;;1.70;;
6638;SDS011;3355;52.882;8.430;2024-01-07T10:27:43;2.60;;;2.07;;
6638;SDS011;3355;52.882;8.430;2024-01-07T10:30:13;3.60;;;1.97;;
6638;SDS011;3355;52.882;8.430;2024-01-07T10:32:41;2.57;;;1.63;;
6638;SDS011;3355;52.882;8.430;2024-01-07T10:35:11;3.30;;;1.50;;
6638;SDS011;3355;52.882;8.430;2024-01-07T10:37:43;3.17;;;2.17;;
6638;SDS011;3355;52.882;8.430;2024-01-07T10:40:13;2.37;;;2.13;;
6638;SDS011;3355;52.882;8.430;2024-01-07T10:45:29;3.20;;;2.30;;
6638;SDS011;3355;52.882;8.430;2024-01-07T10:47:57;2.53;;;2.20;;
6638;SDS011;3355;52.882;8.430;2024-01-07T10:50:26;4.00;;;2.30;;
6638;SDS011;3355;52.882;8.430;2024-01-07T10:52:57;5.77;;;2.30;;
6638;SDS011;3355;52.882;8.430;2024-01-07T10:55:25;3.40;;;2.50;;
6638;SDS011;3355;52.882;8.430;2024-01-07T10:57:52;5.00;;;2.80;;
6638;SDS011;3355;52.882;8.430;2024-01-07T11:00:20;4.80;;;3.47;;
6638;SDS011;3355;52.882;8.430;2024-01-07T11:02:49;7.57;;;3.90;;
6638;SDS011;3355;52.882;8.430;2024-01-07T11:05:21;4.93;;;3.50;;
6638;SDS011;3355;52.882;8.430;2024-01-07T11:07:54;5.40;;;2.93;;
6638;SDS011;3355;52.882;8.430;2024-01-07T11:10:25;4.90;;;3.40;;
6638;SDS011;3355;52.882;8.430;2024-01-07T11:12:56;4.87;;;3.17;;
6638;SDS011;3355;52.882;8.430;2024-01-07T11:18:18;4.70;;;3.40;;
6638;SDS011;3355;52.882;8.430;2024-01-07T11:20:44;4.07;;;3.30;;
6638;SDS011;3355;52.882;8.430;2024-01-07T11:26:02;3.63;;;3.33;;
6638;SDS011;3355;52.882;8.430;2024-01-07T11:28:42;8.00;;;4.03;;
6638;SDS011;3355;52.882;8.430;2024-01-07T11:31:10;3.63;;;3.33;;
6638;SDS011;3355;52.882;8.430;2024-01-07T11:33:36;3.57;;;3.00;;
6638;SDS011;3355;52.882;8.430;2024-01-07T11:36:04;4.63;;;3.33;;
6638;SDS011;3355;52.882;8.430;2024-01-07T11:38:35;5.17;;;3.10;;
6638;SDS011;3355;52.882;8.430;2024-01-07T11:41:02;11.40;;;4.57;;
6638;SDS011;3355;52.882;8.430;2024-01-07T11:43:30;3.30;;;3.00;;
6638;SDS011;3355;52.882;8.430;2024-01-07T11:45:57;4.03;;;3.10;;
6638;SDS011;3355;52.882;8.430;2024-01-07T11:48:24;4.23;;;3.10;;
6638;SDS011;3355;52.882;8.430;2024-01-07T11:50:52;4.20;;;2.83;;
6638;SDS011;3355;52.882;8.430;2024-01-07T11:53:18;3.80;;;2.90;;
6638;SDS011;3355;52.882;8.430;2024-01-07T11:55:46;4.10;;;2.47;;
6638;SDS011;3355;52.882;8.430;2024-01-07T11:58:13;3.60;;;2.60;;
6638;SDS011;3355;52.882;8.430;2024-01-07T12:00:40;3.50;;;2.80;;
6638;SDS011;3355;52.882;8.430;2024-01-07T12:03:07;3.90;;;2.80;;
6638;SDS011;3355;52.882;8.430;2024-01-07T12:05:34;4.00;;;2.60;;
6638;SDS011;3355;52.882;8.430;2024-01-07T12:08:00;4.20;;;2.60;;
6638;SDS011;3355;52.882;8.430;2024-01-07T12:10:28;4.33;;;2.90;;
6638;SDS011;3355;52.882;8.430;2024-01-07T12:12:56;7.53;;;2.90;;
6638;SDS011;3355;52.882;8.430;2024-01-07T12:15:23;3.77;;;2.23;;
6638;SDS011;3355;52.882;8.430;2024-01-07T12:17:56;3.90;;;2.63;;
6638;SDS011;3355;52.882;8.430;2024-01-07T12:20:23;2.87;;;2.40;;
6638;SDS011;3355;52.882;8.430;2024-01-07T12:23:04;3.50;;;2.50;;
6638;SDS011;3355;52.882;8.430;2024-01-07T12:25:31;3.00;;;2.20;;
6638;SDS011;3355;52.882;8.430;2024-01-07T12:28:00;4.20;;;3.07;;
6638;SDS011;3355;52.882;8.430;2024-01-07T12:30:26;3.77;;;2.20;;
6638;SDS011;3355;52.882;8.430;2024-01-07T12:32:53;4.23;;;2.70;;
6638;SDS011;3355;52.882;8.430;2024-01-07T12:35:28;4.37;;;2.60;;
6638;SDS011;3355;52.882;8.430;2024-01-07T12:38:07;3.00;;;2.30;;
6638;SDS011;3355;52.882;8.430;2024-01-07T12:40:57;4.03;;;2.90;;
6638;SDS011;3355;52.882;8.430;2024-01-07T12:50:28;3.60;;;2.17;;
6638;SDS011;3355;52.882;8.430;2024-01-07T13:04:01;4.70;;;3.40;;
6638;SDS011;3355;52.882;8.430;2024-01-07T13:20:18;4.20;;;2.90;;
6638;SDS011;3355;52.882;8.430;2024-01-07T13:22:57;7.57;;;3.20;;
6638;SDS011;3355;52.882;8.430;2024-01-07T13:25:51;4.43;;;3.30;;
6638;SDS011;3355;52.882;8.430;2024-01-07T13:31:53;3.20;;;2.70;;
6638;SDS011;3355;52.882;8.430;2024-01-07T13:37:25;3.10;;;2.47;;
6638;SDS011;3355;52.882;8.430;2024-01-07T13:39:55;3.53;;;2.90;;
6638;SDS011;3355;52.882;8.430;2024-01-07T13:42:22;6.30;;;3.47;;
6638;SDS011;3355;52.882;8.430;2024-01-07T13:44:49;3.30;;;2.53;;
6638;SDS011;3355;52.882;8.430;2024-01-07T13:47:49;11.23;;;3.03;;
6638;SDS011;3355;52.882;8.430;2024-01-07T13:50:13;3.17;;;2.80;;
6638;SDS011;3355;52.882;8.430;2024-01-07T13:52:41;7.90;;;3.87;;
6638;SDS011;3355;52.882;8.430;2024-01-07T13:55:08;3.77;;;2.87;;
6638;SDS011;3355;52.882;8.430;2024-01-07T13:57:35;4.40;;;2.80;;
6638;SDS011;3355;52.882;8.430;2024-01-07T14:00:02;3.37;;;2.63;;
6638;SDS011;3355;52.882;8.430;2024-01-07T14:02:33;3.87;;;2.60;;
6638;SDS011;3355;52.882;8.430;2024-01-07T14:04:59;4.60;;;3.33;;
6638;SDS011;3355;52.882;8.430;2024-01-07T14:07:29;3.60;;;2.87;;
6638;SDS011;3355;52.882;8.430;2024-01-07T14:09:57;3.60;;;2.60;;
6638;SDS011;3355;52.882;8.430;2024-01-07T14:12:23;4.33;;;2.40;;
6638;SDS011;3355;52.882;8.430;2024-01-07T14:14:50;3.10;;;2.20;;
6638;SDS011;3355;52.882;8.430;2024-01-07T14:17:17;4.87;;;3.10;;
6638;SDS011;3355;52.882;8.430;2024-01-07T14:19:43;4.53;;;2.43;;
6638;SDS011;3355;52.882;8.430;2024-01-07T14:22:11;3.60;;;2.73;;
6638;SDS011;3355;52.882;8.430;2024-01-07T14:24:39;3.77;;;2.80;;
6638;SDS011;3355;52.882;8.430;2024-01-07T14:27:06;3.70;;;3.30;;
6638;SDS011;3355;52.882;8.430;2024-01-07T14:29:33;7.30;;;5.50;;
6638;SDS011;3355;52.882;8.430;2024-01-07T14:32:00;24.77;;;16.10;;
6638;SDS011;3355;52.882;8.430;2024-01-07T14:34:27;6.30;;;3.90;;
6638;SDS011;3355;52.882;8.430;2024-01-07T14:36:56;4.00;;;2.40;;
6638;SDS011;3355;52.882;8.430;2024-01-07T14:39:22;4.20;;;3.07;;
6638;SDS011;3355;52.882;8.430;2024-01-07T14:41:49;3.73;;;2.70;;
6638;SDS011;3355;52.882;8.430;2024-01-07T14:44:16;5.57;;;2.70;;
6638;SDS011;3355;52.882;8.430;2024-01-07T14:46:43;4.10;;;2.83;;
6638;SDS011;3355;52.882;8.430;2024-01-07T14:49:10;3.90;;;2.73;;
6638;SDS011;3355;52.882;8.430;2024-01-07T14:51:36;4.50;;;2.87;;
6638;SDS011;3355;52.882;8.430;2024-01-07T14:54:03;5.57;;;4.20;;
6638;SDS011;3355;52.882;8.430;2024-01-07T14:56:30;4.70;;;2.47;;
6638;SDS011;3355;52.882;8.430;2024-01-07T14:58:57;5.40;;;3.50;;
6638;SDS011;3355;52.882;8.430;2024-01-07T15:01:25;3.40;;;2.50;;
6638;SDS011;3355;52.882;8.430;2024-01-07T15:03:52;7.60;;;4.90;;
6638;SDS011;3355;52.882;8.430;2024-01-07T15:06:19;4.03;;;3.30;;
6638;SDS011;3355;52.882;8.430;2024-01-07T15:08:45;4.10;;;3.10;;
6638;SDS011;3355;52.882;8.430;2024-01-07T15:11:12;4.60;;;3.10;;
6638;SDS011;3355;52.882;8.430;2024-01-07T15:13:40;5.03;;;2.80;;
6638;SDS011;3355;52.882;8.430;2024-01-07T15:16:08;5.53;;;3.73;;
6638;SDS011;3355;52.882;8.430;2024-01-07T15:18:36;10.87;;;7.20;;
6638;SDS011;3355;52.882;8.430;2024-01-07T15:21:03;9.90;;;7.70;;
6638;SDS011;3355;52.882;8.430;2024-01-07T15:23:29;5.43;;;4.50;;
6638;SDS011;3355;52.882;8.430;2024-01-07T15:25:56;4.78;;;3.60;;
6638;SDS011;3355;52.882;8.430;2024-01-07T15:28:22;7.13;;;3.87;;
6638;SDS011;3355;52.882;8.430;2024-01-07T15:30:49;3.53;;;2.70;;
6638;SDS011;3355;52.882;8.430;2024-01-07T15:33:15;4.50;;;3.37;;
6638;SDS011;3355;52.882;8.430;2024-01-07T15:35:43;4.67;;;3.40;;
6638;SDS011;3355;52.882;8.430;2024-01-07T15:38:10;6.00;;;4.13;;
6638;SDS011;3355;52.882;8.430;2024-01-07T15:40:36;8.13;;;4.60;;
6638;SDS011;3355;52.882;8.430;2024-01-07T15:43:03;7.33;;;4.37;;
6638;SDS011;3355;52.882;8.430;2024-01-07T15:45:29;7.23;;;5.00;;
6638;SDS011;3355;52.882;8.430;2024-01-07T15:47:56;6.33;;;4.60;;
6638;SDS011;3355;52.882;8.430;2024-01-07T15:50:23;7.50;;;4.00;;
6638;SDS011;3355;52.882;8.430;2024-01-07T15:52:51;4.70;;;4.00;;
6638;SDS011;3355;52.882;8.430;2024-01-07T15:55:17;5.87;;;4.63;;
6638;SDS011;3355;52.882;8.430;2024-01-07T15:57:44;6.00;;;4.57;;
6638;SDS011;3355;52.882;8.430;2024-01-07T16:00:13;5.87;;;3.70;;
6638;SDS011;3355;52.882;8.430;2024-01-07T16:02:40;6.53;;;4.70;;
6638;SDS011;3355;52.882;8.430;2024-01-07T16:05:07;7.93;;;4.23;;
6638;SDS011;3355;52.882;8.430;2024-01-07T16:07:36;4.73;;;3.77;;
6638;SDS011;3355;52.882;8.430;2024-01-07T16:10:04;7.20;;;4.77;;
6638;SDS011;3355;52.882;8.430;2024-01-07T16:12:31;6.20;;;4.27;;
6638;SDS011;3355;52.882;8.430;2024-01-07T16:14:58;7.10;;;4.37;;
6638;SDS011;3355;52.882;8.430;2024-01-07T16:17:25;6.53;;;4.00;;
6638;SDS011;3355;52.882;8.430;2024-01-07T16:19:52;4.73;;;4.07;;
6638;SDS011;3355;52.882;8.430;2024-01-07T16:22:18;7.40;;;4.23;;
6638;SDS011;3355;52.882;8.430;2024-01-07T16:24:45;5.30;;;4.33;;
6638;SDS011;3355;52.882;8.430;2024-01-07T16:27:13;18.43;;;11.70;;
6638;SDS011;3355;52.882;8.430;2024-01-07T16:29:40;8.10;;;6.40;;
6638;SDS011;3355;52.882;8.430;2024-01-07T16:32:07;9.87;;;7.17;;
6638;SDS011;3355;52.882;8.430;2024-01-07T16:34:33;9.73;;;4.80;;
6638;SDS011;3355;52.882;8.430;2024-01-07T16:37:00;6.87;;;4.20;;
6638;SDS011;3355;52.882;8.430;2024-01-07T16:39:26;8.37;;;4.10;;
6638;SDS011;3355;52.882;8.430;2024-01-07T16:41:53;14.37;;;9.10;;
6638;SDS011;3355;52.882;8.430;2024-01-07T16:44:22;15.00;;;8.57;;
6638;SDS011;3355;52.882;8.430;2024-01-07T16:46:49;10.17;;;7.30;;
6638;SDS011;3355;52.882;8.430;2024-01-07T16:49:18;7.37;;;6.00;;
6638;SDS011;3355;52.882;8.430;2024-01-07T16:51:45;7.13;;;5.10;;
6638;SDS011;3355;52.882;8.430;2024-01-07T16:54:11;7.90;;;4.77;;
6638;SDS011;3355;52.882;8.430;2024-01-07T16:56:38;7.27;;;4.77;;
6638;SDS011;3355;52.882;8.430;2024-01-07T16:59:05;8.20;;;5.80;;
6638;SDS011;3355;52.882;8.430;2024-01-07T17:01:32;7.03;;;5.50;;
6638;SDS011;3355;52.882;8.430;2024-01-07T17:03:59;6.10;;;4.00;;
6638;SDS011;3355;52.882;8.430;2024-01-07T17:06:26;5.40;;;3.83;;
6638;SDS011;3355;52.882;8.430;2024-01-07T17:08:52;7.30;;;3.70;;
6638;SDS011;3355;52.882;8.430;2024-01-07T17:11:19;4.57;;;3.70;;
6638;SDS011;3355;52.882;8.430;2024-01-07T17:13:45;13.30;;;3.27;;
6638;SDS011;3355;52.882;8.430;2024-01-07T17:16:12;4.67;;;3.50;;
6638;SDS011;3355;52.882;8.430;2024-01-07T17:18:40;5.70;;;4.47;;
6638;SDS011;3355;52.882;8.430;2024-01-07T17:21:06;4.83;;;3.00;;
6638;SDS011;3355;52.882;8.430;2024-01-07T17:23:33;8.97;;;4.00;;
6638;SDS011;3355;52.882;8.430;2024-01-07T17:26:00;5.67;;;3.50;;
6638;SDS011;3355;52.882;8.430;2024-01-07T17:28:26;4.77;;;3.53;;
6638;SDS011;3355;52.882;8.430;2024-01-07T17:30:53;6.70;;;3.20;;
6638;SDS011;3355;52.882;8.430;2024-01-07T17:33:19;6.33;;;3.20;;
6638;SDS011;3355;52.882;8.430;2024-01-07T17:35:49;6.23;;;3.50;;
6638;SDS011;3355;52.882;8.430;2024-01-07T17:38:15;4.73;;;2.60;;
6638;SDS011;3355;52.882;8.430;2024-01-07T17:40:45;6.10;;;3.50;;
6638;SDS011;3355;52.882;8.430;2024-01-07T17:43:12;5.43;;;3.60;;
6638;SDS011;3355;52.882;8.430;2024-01-07T17:45:40;5.30;;;3.23;;
6638;SDS011;3355;52.882;8.430;2024-01-07T17:48:08;5.03;;;3.67;;
6638;SDS011;3355;52.882;8.430;2024-01-07T17:50:34;5.00;;;3.70;;
6638;SDS011;3355;52.882;8.430;2024-01-07T17:53:03;5.63;;;3.40;;
6638;SDS011;3355;52.882;8.430;2024-01-07T17:55:34;7.87;;;3.60;;
6638;SDS011;3355;52.882;8.430;2024-01-07T17:58:01;7.80;;;5.20;;
6638;SDS011;3355;52.882;8.430;2024-01-07T18:00:27;6.20;;;3.70;;
6638;SDS011;3355;52.882;8.430;2024-01-07T18:02:54;4.73;;;3.47;;
6638;SDS011;3355;52.882;8.430;2024-01-07T18:05:21;5.00;;;3.63;;
6638;SDS011;3355;52.882;8.430;2024-01-07T18:07:48;3.30;;;2.73;;
6638;SDS011;3355;52.882;8.430;2024-01-07T18:10:16;4.93;;;3.83;;
6638;SDS011;3355;52.882;8.430;2024-01-07T18:12:42;4.17;;;3.20;;
6638;SDS011;3355;52.882;8.430;2024-01-07T18:15:09;4.03;;;3.30;;
6638;SDS011;3355;52.882;8.430;2024-01-07T18:17:36;3.63;;;2.73;;
6638;SDS011;3355;52.882;8.430;2024-01-07T18:20:07;2.73;;;2.30;;
6638;SDS011;3355;52.882;8.430;2024-01-07T18:22:35;3.30;;;2.20;;
6638;SDS011;3355;52.882;8.430;2024-01-07T18:25:01;4.10;;;2.37;;
6638;SDS011;3355;52.882;8.430;2024-01-07T18:27:29;3.43;;;3.10;;
6638;SDS011;3355;52.882;8.430;2024-01-07T18:29:56;2.90;;;2.40;;
6638;SDS011;3355;52.882;8.430;2024-01-07T18:32:24;3.80;;;2.90;;
6638;SDS011;3355;52.882;8.430;2024-01-07T18:34:50;6.00;;;4.20;;
6638;SDS011;3355;52.882;8.430;2024-01-07T18:37:18;2.70;;;2.20;;
6638;SDS011;3355;52.882;8.430;2024-01-07T18:39:46;2.93;;;2.30;;
6638;SDS011;3355;52.882;8.430;2024-01-07T18:42:12;2.73;;;2.13;;
6638;SDS011;3355;52.882;8.430;2024-01-07T18:44:40;6.13;;;2.40;;
6638;SDS011;3355;52.882;8.430;2024-01-07T18:47:07;3.30;;;2.70;;
6638;SDS011;3355;52.882;8.430;2024-01-07T18:49:37;3.80;;;2.53;;
6638;SDS011;3355;52.882;8.430;2024-01-07T18:52:04;4.87;;;3.10;;
6638;SDS011;3355;52.882;8.430;2024-01-07T18:54:31;3.07;;;2.27;;
6638;SDS011;3355;52.882;8.430;2024-01-07T18:56:57;4.27;;;2.63;;
6638;SDS011;3355;52.882;8.430;2024-01-07T18:59:25;5.07;;;2.90;;
6638;SDS011;3355;52.882;8.430;2024-01-07T19:01:53;3.90;;;2.50;;
6638;SDS011;3355;52.882;8.430;2024-01-07T19:04:20;4.27;;;2.53;;
6638;SDS011;3355;52.882;8.430;2024-01-07T19:06:46;4.93;;;3.33;;
6638;SDS011;3355;52.882;8.430;2024-01-07T19:09:13;4.60;;;3.13;;